Time;durP1;ratioP1;P1;durP2;ratioP2;P2;SDS_P1;SDS_P2;PMS_P1;PMS_P2;Temp;Humidity;BMP_temperature;BMP_pressure;BME280_temperature;BME280_humidity;BME280_pressure;Samples;Min_cycle;Max_cycle;Signal;HPM_P1;HPM_P2
2023/09/29 00:01:18;;;;;;;7.15;2.78;;;;;;;22.63;51.29;100363.97;5012964;28;20037;-82
2023/09/29 00:03:45;;;;;;;7.53;2.70;;;;;;;22.60;51.32;100369.50;5011783;28;20038;-90
2023/09/29 00:06:10;;;;;;;7.43;2.88;;;;;;;22.55;51.69;100371.56;5010785;28;20029;-82
2023/09/29 00:08:35;;;;;;;7.87;2.77;;;;;;;22.48;51.64;100367.44;5028828;28;20536;-82
2023/09/29 00:11:01;;;;;;;6.30;2.80;;;;;;;22.42;52.04;100370.41;5032059;28;20030;-88
2023/09/29 00:13:26;;;;;;;5.70;2.60;;;;;;;22.37;52.03;100367.97;5031816;28;20280;-82
2023/09/29 00:15:52;;;;;;;6.50;2.90;;;;;;;22.36;51.95;100363.53;5032722;28;20032;-81
2023/09/29 00:18:17;;;;;;;8.47;2.50;;;;;;;22.32;52.19;100370.03;5032442;28;20025;-83
2023/09/29 00:20:42;;;;;;;7.77;2.80;;;;;;;22.30;52.30;100371.91;5013794;28;20394;-83
2023/09/29 00:23:09;;;;;;;9.10;2.95;;;;;;;22.27;52.32;100367.56;5020586;28;20052;-83
2023/09/29 00:25:34;;;;;;;6.33;2.70;;;;;;;22.26;52.33;100373.88;5032247;28;20507;-82
2023/09/29 00:28:00;;;;;;;6.88;2.97;;;;;;;22.23;52.44;100371.38;5031114;28;20021;-82
2023/09/29 00:30:26;;;;;;;8.57;3.03;;;;;;;22.21;52.52;100378.63;5031421;28;20371;-82
2023/09/29 00:32:53;;;;;;;6.45;2.80;;;;;;;22.17;52.41;100371.69;5031358;28;20027;-93
2023/09/29 00:35:27;;;;;;;6.83;3.00;;;;;;;22.08;52.88;100373.91;5035226;28;20049;-90
2023/09/29 00:37:57;;;;;;;5.15;2.60;;;;;;;22.00;53.06;100376.06;5035984;28;20025;-82
2023/09/29 00:40:23;;;;;;;9.07;2.70;;;;;;;21.97;53.14;100370.88;5032401;28;20124;-82
2023/09/29 00:42:49;;;;;;;6.60;2.80;;;;;;;21.96;53.09;100374.50;5030855;28;20047;-82
2023/09/29 00:45:20;;;;;;;7.70;3.40;;;;;;;21.93;53.60;100380.88;5031022;28;20388;-82
2023/09/29 00:47:49;;;;;;;7.68;2.80;;;;;;;21.89;53.44;100381.13;5030667;28;20033;-82
2023/09/29 00:50:14;;;;;;;6.15;2.85;;;;;;;21.86;53.64;100384.81;5030563;28;20421;-82
2023/09/29 00:52:41;;;;;;;7.90;2.93;;;;;;;21.85;53.64;100382.22;5031162;28;20061;-82
2023/09/29 00:55:11;;;;;;;8.55;2.83;;;;;;;21.82;53.92;100383.22;5030975;28;20061;-87
2023/09/29 00:57:41;;;;;;;7.97;2.92;;;;;;;21.83;54.13;100384.97;5030678;28;20053;-82
2023/09/29 01:00:29;;;;;;;6.60;2.95;;;;;;;21.85;53.67;100382.22;5021521;28;20037;-89
2023/09/29 01:03:14;;;;;;;6.50;2.70;;;;;;;21.82;53.74;100377.88;5011732;28;20098;-82
2023/09/29 01:05:42;;;;;;;7.32;3.08;;;;;;;21.78;53.67;100377.16;5012019;28;20421;-82
2023/09/29 01:08:09;;;;;;;9.82;3.20;;;;;;;21.72;53.77;100371.25;5024521;28;20036;-83
2023/09/29 01:10:39;;;;;;;6.35;2.50;;;;;;;21.68;54.29;100373.19;5030859;28;20017;-83
2023/09/29 01:13:06;;;;;;;8.98;2.90;;;;;;;21.66;54.21;100375.09;5031236;28;20090;-89
2023/09/29 01:15:33;;;;;;;7.60;2.80;;;;;;;21.66;54.34;100369.72;5030305;28;20037;-83
2023/09/29 01:17:59;;;;;;;5.88;2.70;;;;;;;21.64;54.31;100375.16;5030292;28;20028;-91
2023/09/29 01:20:30;;;;;;;5.97;2.60;;;;;;;21.64;54.74;100374.25;5030760;28;20037;-81
2023/09/29 01:23:05;;;;;;;7.70;2.90;;;;;;;21.63;54.80;100370.69;5013225;28;20068;-82
2023/09/29 01:25:31;;;;;;;8.27;3.07;;;;;;;21.62;54.59;100376.16;5029340;28;20033;-88
2023/09/29 01:27:57;;;;;;;6.72;2.90;;;;;;;21.59;54.54;100373.63;5012460;28;20029;-82
2023/09/29 01:30:24;;;;;;;6.87;2.90;;;;;;;21.56;55.02;100376.41;5012555;28;20402;-89
2023/09/29 01:32:51;;;;;;;6.73;2.80;;;;;;;21.57;54.84;100375.47;5012197;28;20360;-90
2023/09/29 01:35:18;;;;;;;6.68;2.70;;;;;;;21.55;54.82;100374.69;5010497;28;20025;-89
2023/09/29 01:37:46;;;;;;;5.60;2.70;;;;;;;21.54;54.93;100378.31;5011461;28;20022;-90
2023/09/29 01:40:16;;;;;;;6.10;2.67;;;;;;;21.52;55.12;100379.25;5010791;28;20044;-91
2023/09/29 01:42:44;;;;;;;9.23;2.80;;;;;;;21.50;54.92;100378.47;5024818;28;20032;-91
2023/09/29 01:45:11;;;;;;;6.83;2.90;;;;;;;21.47;54.89;100377.75;5030851;28;20044;-89
2023/09/29 01:47:38;;;;;;;7.85;2.92;;;;;;;21.39;55.53;100377.22;5032121;28;20022;-90
2023/09/29 01:50:05;;;;;;;6.47;2.83;;;;;;;21.29;55.45;100384.84;5033271;28;20033;-82
2023/09/29 01:52:31;;;;;;;6.55;2.70;;;;;;;21.20;55.55;100378.97;5030444;28;20022;-82
2023/09/29 01:54:56;;;;;;;7.37;2.80;;;;;;;21.17;55.85;100380.94;5029914;28;20028;-85
2023/09/29 01:57:21;;;;;;;7.40;3.00;;;;;;;21.12;56.35;100383.84;5029983;28;20056;-82
2023/09/29 01:59:48;;;;;;;7.63;3.00;;;;;;;21.13;56.13;100385.56;5023339;28;20137;-83
2023/09/29 02:02:14;;;;;;;7.28;2.90;;;;;;;21.06;57.09;100390.34;5010809;28;20503;-83
2023/09/29 02:04:40;;;;;;;8.10;3.47;;;;;;;21.00;57.14;100389.75;5010110;28;20038;-83
2023/09/29 02:07:05;;;;;;;8.07;3.45;;;;;;;20.96;57.41;100391.69;5015032;28;20513;-84
2023/09/29 02:09:31;;;;;;;6.80;2.87;;;;;;;20.98;57.34;100380.91;5029905;28;20050;-82
2023/09/29 02:11:56;;;;;;;7.57;2.70;;;;;;;21.01;57.22;100386.13;5029887;28;20113;-82
2023/09/29 02:14:21;;;;;;;7.25;3.10;;;;;;;21.06;57.48;100389.44;5030261;28;20041;-83
2023/09/29 02:16:48;;;;;;;6.57;2.70;;;;;;;21.05;57.52;100393.06;5030815;28;20385;-82
2023/09/29 02:19:14;;;;;;;8.35;2.85;;;;;;;21.03;57.61;100393.16;5029115;28;20025;-82
2023/09/29 02:21:41;;;;;;;7.27;3.20;;;;;;;21.02;57.57;100394.09;5029520;28;20143;-84
2023/09/29 02:24:07;;;;;;;7.13;3.40;;;;;;;21.00;57.59;100395.97;5029570;28;20098;-82
2023/09/29 02:26:34;;;;;;;7.40;3.20;;;;;;;20.98;57.90;100396.97;5029294;28;20037;-82
2023/09/29 02:29:01;;;;;;;7.57;2.97;;;;;;;20.94;58.06;100402.47;5029385;28;20061;-82
2023/09/29 02:31:26;;;;;;;8.40;2.83;;;;;;;20.88;58.35;100402.75;5030166;28;20037;-81
2023/09/29 02:33:53;;;;;;;8.20;2.93;;;;;;;20.84;58.37;100400.28;5029986;28;20397;-89
2023/09/29 02:36:19;;;;;;;6.15;2.72;;;;;;;20.83;58.19;100407.41;5029732;28;20046;-83
2023/09/29 02:38:45;;;;;;;9.50;2.50;;;;;;;20.83;58.66;100412.78;5030078;28;20037;-82
2023/09/29 02:41:10;;;;;;;9.70;3.23;;;;;;;20.80;58.66;100404.88;5029575;28;20489;-82
2023/09/29 02:43:36;;;;;;;7.63;3.20;;;;;;;20.76;58.38;100408.63;5030339;28;20060;-89
2023/09/29 02:46:01;;;;;;;6.50;2.83;;;;;;;20.75;58.80;100404.19;5032262;28;20167;-90
2023/09/29 02:48:29;;;;;;;10.80;2.90;;;;;;;20.75;58.75;100406.88;5033506;28;20470;-86
2023/09/29 02:50:55;;;;;;;9.00;3.00;;;;;;;20.75;59.06;100412.22;5031509;28;20037;-91
2023/09/29 02:53:21;;;;;;;6.10;2.70;;;;;;;20.73;58.72;100409.59;5033081;28;20040;-90
2023/09/29 02:55:46;;;;;;;5.97;3.10;;;;;;;20.70;58.48;100414.25;5034696;28;20029;-88
2023/09/29 02:58:13;;;;;;;7.10;3.03;;;;;;;20.67;59.00;100419.72;5038111;28;20018;-89
2023/09/29 03:00:41;;;;;;;5.37;2.60;;;;;;;20.65;59.18;100427.81;5023340;28;20082;-91
2023/09/29 03:03:09;;;;;;;7.82;2.65;;;;;;;20.62;58.95;100426.16;5022212;28;20681;-86
2023/09/29 03:05:34;;;;;;;6.40;2.88;;;;;;;20.61;58.70;100431.56;5023770;28;20034;-88
2023/09/29 03:08:00;;;;;;;7.90;2.73;;;;;;;20.57;58.78;100436.16;5016939;28;20524;-86
2023/09/29 03:10:28;;;;;;;9.30;3.08;;;;;;;20.53;59.16;100441.75;5013221;28;20042;-85
2023/09/29 03:12:57;;;;;;;6.70;2.97;;;;;;;20.46;59.28;100439.31;5028188;28;20037;-86
2023/09/29 03:15:23;;;;;;;6.72;2.83;;;;;;;20.43;59.35;100438.59;5032294;28;20045;-89
2023/09/29 03:17:49;;;;;;;6.63;2.80;;;;;;;20.41;59.22;100445.81;5032360;28;20083;-82
2023/09/29 03:20:15;;;;;;;7.32;3.05;;;;;;;20.36;59.21;100444.16;5032685;28;20056;-81
2023/09/29 03:22:43;;;;;;;6.28;2.58;;;;;;;20.34;59.13;100451.38;5033466;28;20021;-86
2023/09/29 03:25:20;;;;;;;7.77;2.90;;;;;;;20.30;59.54;100449.78;5034218;28;20398;-82
2023/09/29 03:27:46;;;;;;;7.78;3.20;;;;;;;20.25;59.61;100448.22;5032572;28;20108;-82
2023/09/29 03:30:12;;;;;;;6.20;2.80;;;;;;;20.22;59.30;100451.91;5032597;28;20120;-82
2023/09/29 03:32:38;;;;;;;7.03;3.17;;;;;;;20.17;59.66;100460.13;5032250;28;20026;-83
2023/09/29 03:35:07;;;;;;;9.10;3.20;;;;;;;20.11;59.58;100455.03;5032418;28;20045;-83
2023/09/29 03:37:36;;;;;;;7.47;2.70;;;;;;;20.07;60.11;100459.63;5033492;28;20042;-81
2023/09/29 03:40:09;;;;;;;7.03;3.00;;;;;;;20.04;59.72;100456.22;5039087;28;20055;-82
2023/09/29 03:42:42;;;;;;;9.85;3.08;;;;;;;20.01;60.14;100462.56;5033607;28;20113;-82
2023/09/29 03:45:09;;;;;;;6.20;2.50;;;;;;;19.97;59.92;100468.97;5034976;28;20116;-86
2023/09/29 03:47:35;;;;;;;8.95;3.25;;;;;;;19.88;60.51;100463.94;5034375;28;20056;-84
2023/09/29 03:50:01;;;;;;;7.88;3.00;;;;;;;19.84;60.46;100475.69;5038189;28;20413;-91
2023/09/29 03:52:29;;;;;;;11.20;3.80;;;;;;;19.75;61.01;100475.13;5042268;28;20109;-91
2023/09/29 03:54:55;;;;;;;7.10;3.00;;;;;;;19.67;60.79;100482.56;5035789;28;20036;-82
2023/09/29 03:57:21;;;;;;;7.83;2.73;;;;;;;19.64;61.08;100480.00;5034478;28;20030;-83
2023/09/29 03:59:46;;;;;;;6.57;2.53;;;;;;;19.64;60.87;100477.31;5035297;28;20260;-91
2023/09/29 04:02:12;;;;;;;8.53;2.87;;;;;;;19.67;60.67;100481.69;5034769;28;20021;-92
2023/09/29 04:04:37;;;;;;;9.60;2.80;;;;;;;19.66;61.16;100475.50;5035841;28;20271;-82
2023/09/29 04:07:04;;;;;;;8.87;2.90;;;;;;;19.66;60.97;100483.50;5029293;28;20030;-84
2023/09/29 04:09:30;;;;;;;7.15;2.80;;;;;;;19.64;61.04;100488.00;5032821;28;20388;-80
2023/09/29 04:11:55;;;;;;;9.83;2.87;;;;;;;19.61;60.69;100489.00;5034656;28;20037;-88
2023/09/29 04:14:21;;;;;;;9.23;3.20;;;;;;;19.59;61.04;100490.88;5034052;28;20467;-81
2023/09/29 04:16:46;;;;;;;7.93;3.35;;;;;;;19.57;61.18;100497.19;5033578;28;20106;-82
2023/09/29 04:19:12;;;;;;;6.77;2.60;;;;;;;19.56;61.24;100500.78;5031540;28;20029;-82
2023/09/29 04:21:38;;;;;;;7.13;2.95;;;;;;;19.56;61.61;100504.34;5032140;28;20289;-90
2023/09/29 04:24:04;;;;;;;7.63;3.00;;;;;;;19.57;60.91;100507.88;5034326;28;20262;-89
2023/09/29 04:26:29;;;;;;;7.15;3.17;;;;;;;19.56;60.83;100506.13;5033778;28;20089;-82
2023/09/29 04:28:57;;;;;;;8.63;3.03;;;;;;;19.55;60.88;100512.41;5032421;28;20036;-87
2023/09/29 04:31:23;;;;;;;7.28;2.78;;;;;;;19.54;61.17;100516.00;5019704;28;20029;-89
2023/09/29 04:33:48;;;;;;;8.73;3.23;;;;;;;19.50;61.20;100513.47;5012903;28;20427;-82
2023/09/29 04:36:13;;;;;;;7.73;3.10;;;;;;;19.47;61.26;100518.91;5013935;28;20064;-90
2023/09/29 04:38:41;;;;;;;8.77;3.20;;;;;;;19.40;61.15;100517.38;5016032;28;20272;-85
2023/09/29 04:41:07;;;;;;;8.70;3.42;;;;;;;19.31;61.85;100529.31;5017708;28;20502;-84
2023/09/29 04:43:32;;;;;;;8.47;2.83;;;;;;;19.20;62.33;100523.47;5013313;28;20057;-82
2023/09/29 04:45:57;;;;;;;10.80;3.27;;;;;;;19.14;62.43;100532.56;5014259;28;20486;-89
2023/09/29 04:48:23;;;;;;;8.10;3.30;;;;;;;19.08;62.41;100531.00;5012508;28;20125;-90
2023/09/29 04:50:49;;;;;;;7.13;3.10;;;;;;;19.07;62.47;100537.25;5014848;28;20524;-90
2023/09/29 04:53:14;;;;;;;10.55;3.95;;;;;;;19.02;62.84;100543.69;5018280;28;20030;-92
2023/09/29 04:55:40;;;;;;;11.33;3.47;;;;;;;18.99;63.23;100538.44;5012800;28;20108;-91
2023/09/29 04:58:05;;;;;;;9.37;3.43;;;;;;;18.99;62.61;100546.47;5013096;28;20045;-90
2023/09/29 05:00:30;;;;;;;9.57;3.70;;;;;;;19.02;62.77;100552.53;5023460;28;20021;-89
2023/09/29 05:02:56;;;;;;;11.40;3.47;;;;;;;19.04;62.76;100560.50;5031049;28;20527;-83
2023/09/29 05:05:21;;;;;;;7.93;3.03;;;;;;;19.03;62.60;100562.28;5031143;28;20041;-81
2023/09/29 05:07:47;;;;;;;8.73;3.03;;;;;;;19.04;62.59;100565.84;5032311;28;20334;-92
2023/09/29 05:10:15;;;;;;;7.90;3.00;;;;;;;19.02;62.74;100571.22;5031473;28;20037;-91
2023/09/29 05:12:43;;;;;;;9.32;3.20;;;;;;;18.99;62.61;100581.16;5030893;28;20040;-82
2023/09/29 05:15:09;;;;;;;7.20;3.03;;;;;;;18.96;62.60;100578.56;5030525;28;20033;-81
2023/09/29 05:17:35;;;;;;;7.40;2.92;;;;;;;18.94;62.78;100579.47;5032599;28;20025;-85
2023/09/29 05:20:00;;;;;;;8.37;3.10;;;;;;;18.92;62.93;100583.97;5017323;28;20539;-81
2023/09/29 05:22:25;;;;;;;9.40;3.27;;;;;;;18.89;62.94;100581.41;5011710;28;20032;-88
2023/09/29 05:24:53;;;;;;;9.60;3.20;;;;;;;18.87;63.22;100590.41;5014733;28;20026;-89
2023/09/29 05:27:19;;;;;;;10.00;3.33;;;;;;;18.84;63.18;100602.03;5030308;28;20029;-85
2023/09/29 05:29:44;;;;;;;10.93;3.42;;;;;;;18.76;63.45;100606.78;5031362;28;20592;-88
2023/09/29 05:32:10;;;;;;;7.93;3.13;;;;;;;18.71;63.54;100609.59;5016320;28;20041;-81
2023/09/29 05:34:35;;;;;;;9.57;3.17;;;;;;;18.69;63.42;100611.44;5010453;28;20402;-83
2023/09/29 05:37:01;;;;;;;8.32;2.90;;;;;;;18.72;63.53;100613.13;5010344;28;20105;-93
2023/09/29 05:39:27;;;;;;;8.63;3.50;;;;;;;18.73;63.69;100622.88;5015087;28;20029;-93
2023/09/29 05:41:52;;;;;;;11.02;3.15;;;;;;;18.74;63.40;100608.63;5019241;28;20134;-94
2023/09/29 05:44:18;;;;;;;9.57;3.00;;;;;;;18.71;63.54;100619.41;5012405;28;20025;-83
2023/09/29 05:46:43;;;;;;;5.60;2.80;;;;;;;18.68;63.48;100619.47;5010430;28;20062;-83
2023/09/29 05:49:09;;;;;;;8.57;3.10;;;;;;;18.68;63.39;100623.03;5010526;28;20113;-83
2023/09/29 05:51:36;;;;;;;14.80;3.70;;;;;;;18.65;63.55;100629.31;5011944;28;20036;-83
2023/09/29 05:54:02;;;;;;;8.80;2.97;;;;;;;18.62;63.43;100632.09;5011812;28;20739;-83
2023/09/29 05:56:29;;;;;;;10.38;3.47;;;;;;;18.64;63.76;100635.56;5011633;28;20034;-86
2023/09/29 05:58:55;;;;;;;9.50;3.30;;;;;;;18.64;63.83;100635.56;5011086;28;20084;-81
2023/09/29 06:01:22;;;;;;;7.38;3.00;;;;;;;18.65;63.94;100650.66;5031410;28;20030;-81
2023/09/29 06:03:47;;;;;;;8.60;3.07;;;;;;;18.68;63.73;100651.47;5035672;28;20045;-81
2023/09/29 06:06:13;;;;;;;9.13;3.45;;;;;;;18.68;63.83;100648.81;5033219;28;20096;-88
2023/09/29 06:08:38;;;;;;;11.40;2.73;;;;;;;18.68;63.67;100651.47;5033666;28;20140;-87
2023/09/29 06:11:04;;;;;;;9.43;3.43;;;;;;;18.67;63.57;100649.72;5030690;28;20017;-88
2023/09/29 06:13:29;;;;;;;11.18;3.35;;;;;;;18.62;63.80;100655.22;5032052;28;20022;-90
2023/09/29 06:15:58;;;;;;;9.97;3.47;;;;;;;18.57;64.27;100649.19;5033077;28;20029;-84
2023/09/29 06:18:24;;;;;;;9.05;3.38;;;;;;;18.54;64.24;100650.13;5032104;28;20022;-87
2023/09/29 06:20:50;;;;;;;9.05;3.35;;;;;;;18.53;64.40;100653.72;5029939;28;20332;-81
2023/09/29 06:23:15;;;;;;;8.73;3.43;;;;;;;18.52;64.79;100657.31;5030767;28;20025;-89
2023/09/29 06:25:40;;;;;;;15.00;3.80;;;;;;;18.64;64.36;100654.25;5030764;28;20084;-85
2023/09/29 06:28:06;;;;;;;14.63;3.90;;;;;;;18.63;64.62;100652.50;5032780;28;20507;-87
2023/09/29 06:30:31;;;;;;;16.73;3.90;;;;;;;18.61;64.87;100666.81;5033287;28;20044;-81
2023/09/29 06:32:57;;;;;;;17.87;3.97;;;;;;;18.58;65.15;100673.13;5032362;28;20029;-80
2023/09/29 06:35:22;;;;;;;13.30;3.80;;;;;;;18.59;65.45;100677.53;5032787;28;20837;-83
2023/09/29 06:37:47;;;;;;;17.43;3.87;;;;;;;18.59;65.47;100672.19;5032983;28;20026;-85
2023/09/29 06:40:14;;;;;;;17.83;4.40;;;;;;;18.62;65.59;100680.09;5033068;28;20108;-86
2023/09/29 06:42:39;;;;;;;19.23;3.95;;;;;;;18.64;65.80;100678.25;5032905;28;20033;-81
2023/09/29 06:45:06;;;;;;;23.93;4.50;;;;;;;18.66;65.81;100683.56;5033394;28;20067;-81
2023/09/29 06:47:31;;;;;;;21.25;4.75;;;;;;;18.71;65.91;100689.59;5030757;28;20043;-82
2023/09/29 06:49:57;;;;;;;12.25;4.28;;;;;;;18.77;66.28;100689.41;5032609;28;20114;-83
2023/09/29 06:52:24;;;;;;;18.37;4.20;;;;;;;18.97;65.58;100690.56;5032647;28;20155;-82
2023/09/29 06:54:49;;;;;;;23.00;5.53;;;;;;;19.19;65.31;100685.47;5015276;28;20346;-82
2023/09/29 06:57:15;;;;;;;15.68;4.53;;;;;;;19.38;65.58;100684.81;5029498;28;20033;-82
2023/09/29 06:59:40;;;;;;;22.17;4.60;;;;;;;19.60;65.03;100689.41;5033214;28;20108;-83
2023/09/29 07:02:06;;;;;;;19.67;5.38;;;;;;;19.75;65.24;100683.53;5032419;28;20112;-82
2023/09/29 07:04:32;;;;;;;18.70;4.40;;;;;;;19.89;64.78;100698.19;5032900;28;20037;-82
2023/09/29 07:06:58;;;;;;;17.95;4.60;;;;;;;20.01;64.77;100700.47;5029605;28;20014;-82
2023/09/29 07:09:23;;;;;;;18.27;4.67;;;;;;;20.14;64.58;100700.03;5013540;28;20080;-82
2023/09/29 07:11:49;;;;;;;12.80;4.23;;;;;;;20.32;63.87;100706.47;5013810;28;20164;-83
2023/09/29 07:14:14;;;;;;;15.47;3.90;;;;;;;20.49;63.40;100703.16;5013318;28;20029;-82
2023/09/29 07:16:42;;;;;;;12.80;4.57;;;;;;;20.69;62.66;100713.06;5012705;28;20029;-85
2023/09/29 07:19:07;;;;;;;13.87;4.53;;;;;;;20.91;62.34;100713.13;5018510;28;20494;-85
2023/09/29 07:21:33;;;;;;;13.80;4.70;;;;;;;21.04;61.96;100715.31;5032299;28;20113;-82
2023/09/29 07:23:59;;;;;;;13.53;4.60;;;;;;;21.14;61.99;100711.31;5032779;28;20041;-88
2023/09/29 07:26:26;;;;;;;15.85;4.95;;;;;;;21.20;61.64;100708.38;5031659;28;20108;-86
2023/09/29 07:28:52;;;;;;;17.38;4.07;;;;;;;21.26;61.85;100722.47;5032275;28;20033;-83
2023/09/29 07:31:18;;;;;;;13.88;3.80;;;;;;;21.29;61.32;100717.84;5033091;28;20358;-82
2023/09/29 07:33:43;;;;;;;14.33;3.87;;;;;;;21.36;61.46;100723.84;5032957;28;20041;-81
2023/09/29 07:36:08;;;;;;;17.13;4.40;;;;;;;21.43;61.01;100719.94;5032359;28;20046;-85
2023/09/29 07:38:34;;;;;;;14.50;3.87;;;;;;;21.52;61.52;100713.34;5031646;28;20030;-82
2023/09/29 07:41:01;;;;;;;18.63;4.20;;;;;;;21.68;60.60;100713.56;5032950;28;20028;-82
2023/09/29 07:43:27;;;;;;;10.68;3.80;;;;;;;21.80;60.57;100718.38;5031891;28;20022;-83
2023/09/29 07:45:52;;;;;;;11.47;3.37;;;;;;;21.96;59.62;100712.34;5035804;28;20393;-83
2023/09/29 07:48:17;;;;;;;19.90;4.60;;;;;;;22.07;59.92;100715.44;5033374;28;20080;-81
2023/09/29 07:50:43;;;;;;;12.63;4.10;;;;;;;22.16;59.60;100724.00;5033476;28;20256;-83
2023/09/29 07:53:10;;;;;;;10.33;4.00;;;;;;;22.28;59.62;100718.06;5032256;28;20562;-82
2023/09/29 07:55:36;;;;;;;13.90;3.85;;;;;;;22.42;59.32;100714.72;5031779;28;20117;-81
2023/09/29 07:58:02;;;;;;;14.23;3.50;;;;;;;22.54;58.92;100718.69;5031910;28;20139;-84
2023/09/29 08:00:27;;;;;;;10.18;3.50;;;;;;;22.67;58.67;100720.78;5032646;28;20032;-82
2023/09/29 08:02:53;;;;;;;14.67;4.23;;;;;;;22.75;58.17;100711.44;5033806;28;20026;-87
2023/09/29 08:05:19;;;;;;;12.98;3.60;;;;;;;22.88;58.06;100710.81;5033925;28;20022;-85
2023/09/29 08:07:45;;;;;;;16.07;3.67;;;;;;;23.05;57.76;100712.72;5022745;28;20085;-86
2023/09/29 08:10:11;;;;;;;9.80;3.38;;;;;;;23.19;57.54;100720.94;5011871;28;20497;-85
2023/09/29 08:12:36;;;;;;;15.23;3.07;;;;;;;23.36;57.25;100719.25;5011934;28;20364;-83
2023/09/29 08:15:05;;;;;;;11.43;3.70;;;;;;;23.51;56.43;100721.19;5011310;28;20030;-83
2023/09/29 08:17:31;;;;;;;9.17;3.47;;;;;;;23.64;56.31;100717.84;5011279;28;20584;-83
2023/09/29 08:19:57;;;;;;;14.32;3.30;;;;;;;23.79;56.04;100725.13;5024536;28;20272;-86
2023/09/29 08:22:22;;;;;;;11.23;3.57;;;;;;;23.99;55.76;100725.88;5031703;28;20026;-83
2023/09/29 08:24:48;;;;;;;11.97;3.70;;;;;;;24.14;55.08;100734.09;5031654;28;20025;-84
2023/09/29 08:27:13;;;;;;;8.77;3.20;;;;;;;24.27;54.91;100728.94;5031159;28;20065;-83
2023/09/29 08:29:38;;;;;;;10.23;3.10;;;;;;;24.39;54.59;100727.41;5031918;28;20539;-86
2023/09/29 08:32:04;;;;;;;9.30;3.40;;;;;;;24.52;54.01;100732.00;5032315;28;20552;-86
2023/09/29 08:34:31;;;;;;;8.27;3.37;;;;;;;24.72;53.78;100726.50;5032092;28;20065;-86
2023/09/29 08:36:57;;;;;;;24.10;3.72;;;;;;;24.90;53.68;100730.00;5030662;28;20045;-87
2023/09/29 08:39:23;;;;;;;16.42;4.00;;;;;;;25.05;52.36;100734.47;5031111;28;20025;-84
2023/09/29 08:41:56;;;;;;;11.13;3.00;;;;;;;25.17;51.85;100727.50;5032638;28;20024;-83
2023/09/29 08:44:25;;;;;;;8.43;3.17;;;;;;;25.29;51.70;100722.38;5033064;28;20044;-86
2023/09/29 08:46:53;;;;;;;9.85;2.85;;;;;;;25.46;51.53;100722.25;5032692;28;20037;-83
2023/09/29 08:49:20;;;;;;;7.13;2.53;;;;;;;25.65;51.24;100721.16;5030972;28;20030;-87
2023/09/29 08:51:46;;;;;;;13.18;3.25;;;;;;;25.82;50.75;100724.66;5030971;28;20178;-85
2023/09/29 08:54:14;;;;;;;7.80;2.70;;;;;;;25.95;50.40;100731.06;5032068;28;20021;-83
2023/09/29 08:56:40;;;;;;;6.95;2.55;;;;;;;26.08;50.10;100721.22;5031874;28;20112;-83
2023/09/29 08:59:06;;;;;;;6.90;2.50;;;;;;;26.25;49.37;100732.84;5034834;28;20049;-86
2023/09/29 09:01:32;;;;;;;7.47;2.90;;;;;;;26.35;49.85;100725.88;5036656;28;20029;-88
2023/09/29 09:03:57;;;;;;;8.43;2.77;;;;;;;26.49;49.24;100724.16;5031033;28;20167;-88
2023/09/29 09:06:24;;;;;;;6.85;2.60;;;;;;;26.66;49.13;100728.47;5031181;28;20021;-87
2023/09/29 09:08:55;;;;;;;9.85;2.70;;;;;;;26.77;48.23;100725.94;5012377;28;20040;-88
2023/09/29 09:11:21;;;;;;;10.48;2.92;;;;;;;26.92;48.06;100726.81;5014476;28;20025;-89
2023/09/29 09:14:02;;;;;;;9.13;2.80;;;;;;;26.94;47.48;100730.28;5013951;28;20042;-86
2023/09/29 09:16:28;;;;;;;7.95;2.78;;;;;;;26.98;47.00;100730.91;5010977;28;20548;-90
2023/09/29 09:18:53;;;;;;;10.90;3.00;;;;;;;27.04;47.09;100737.75;5011344;28;20387;-88
2023/09/29 09:21:19;;;;;;;9.40;2.90;;;;;;;27.16;46.56;100731.56;5010592;28;20034;-87
2023/09/29 09:23:45;;;;;;;10.95;2.80;;;;;;;27.29;46.85;100733.41;5011408;28;20389;-90
2023/09/29 09:26:17;;;;;;;7.20;2.73;;;;;;;27.34;46.44;100736.66;5021506;28;20062;-88
2023/09/29 09:28:43;;;;;;;7.90;2.63;;;;;;;27.53;46.33;100738.16;5033410;28;20275;-91
2023/09/29 09:31:10;;;;;;;9.30;2.63;;;;;;;27.71;46.02;100733.31;5029989;28;20025;-83
2023/09/29 09:33:35;;;;;;;8.10;2.47;;;;;;;27.85;45.80;100744.06;5029871;28;20061;-85
2023/09/29 09:36:11;;;;;;;6.85;2.50;;;;;;;27.93;46.09;100738.13;5030483;28;20126;-83
2023/09/29 09:38:37;;;;;;;8.57;2.15;;;;;;;28.13;45.81;100741.25;5031401;28;20034;-85
2023/09/29 09:41:04;;;;;;;8.17;2.20;;;;;;;28.27;45.38;100741.16;5030448;28;20432;-89
2023/09/29 09:43:34;;;;;;;6.25;2.30;;;;;;;28.35;45.17;100737.91;5030282;28;20025;-91
2023/09/29 09:46:12;;;;;;;6.72;2.22;;;;;;;28.49;45.11;100742.31;5030084;28;20588;-83
2023/09/29 09:48:49;;;;;;;7.13;2.10;;;;;;;28.64;45.16;100743.06;5030164;28;20071;-84
2023/09/29 09:51:34;;;;;;;6.10;2.20;;;;;;;28.84;44.59;100738.06;5031575;28;20098;-90
2023/09/29 09:54:03;;;;;;;9.43;2.50;;;;;;;28.90;43.61;100733.03;5033985;28;20095;-90
2023/09/29 09:57:06;;;;;;;8.27;2.08;;;;;;;28.92;43.52;100730.19;5031914;28;20022;-84
2023/09/29 09:59:33;;;;;;;6.72;2.33;;;;;;;29.13;43.32;100730.47;5026881;28;20029;-85
2023/09/29 10:02:00;;;;;;;6.53;2.20;;;;;;;29.25;43.39;100731.38;5032211;28;20044;-83
2023/09/29 10:04:28;;;;;;;10.07;2.60;;;;;;;29.27;43.22;100728.53;5035966;28;20029;-85
2023/09/29 10:06:59;;;;;;;6.07;2.47;;;;;;;29.29;42.56;100718.44;5032846;28;20103;-87
2023/09/29 10:09:25;;;;;;;6.65;2.40;;;;;;;29.32;42.30;100718.22;5015747;28;20452;-84
2023/09/29 10:11:58;;;;;;;7.97;2.30;;;;;;;29.29;42.73;100726.56;5016597;28;20528;-90
2023/09/29 10:14:24;;;;;;;7.90;2.27;;;;;;;29.40;43.22;100718.47;5016516;28;20065;-90
2023/09/29 10:17:00;;;;;;;6.03;1.80;;;;;;;29.53;43.03;100710.28;5015183;28;20065;-83
2023/09/29 10:19:37;;;;;;;6.00;2.00;;;;;;;29.72;42.61;100712.44;5025589;28;20025;-84
2023/09/29 10:22:04;;;;;;;6.27;2.10;;;;;;;29.97;42.54;100715.06;5037517;28;20029;-84
2023/09/29 10:24:30;;;;;;;9.02;1.90;;;;;;;30.14;42.07;100711.03;5036280;28;20177;-86
2023/09/29 10:27:03;;;;;;;4.20;1.88;;;;;;;30.26;41.62;100710.03;5035471;28;20033;-83
2023/09/29 10:29:29;;;;;;;6.38;1.85;;;;;;;30.44;41.78;100704.09;5036458;28;20026;-83
2023/09/29 10:32:15;;;;;;;7.10;2.10;;;;;;;30.39;41.54;100704.50;5036282;28;20045;-84
2023/09/29 10:34:41;;;;;;;7.23;1.90;;;;;;;30.60;41.46;100701.88;5035087;28;20033;-85
2023/09/29 10:37:09;;;;;;;5.03;1.80;;;;;;;30.73;41.13;100707.19;5015723;28;20494;-88
2023/09/29 10:39:35;;;;;;;9.10;2.10;;;;;;;30.84;40.99;100709.03;5022009;28;20441;-82
2023/09/29 10:42:12;;;;;;;5.20;1.90;;;;;;;30.86;40.11;100706.16;5035528;28;20029;-85
2023/09/29 10:44:56;;;;;;;7.47;1.90;;;;;;;30.79;40.73;100698.50;5033087;28;20096;-88
2023/09/29 10:47:35;;;;;;;5.70;2.00;;;;;;;30.92;40.39;100700.22;5031597;28;20075;-89
2023/09/29 10:50:05;;;;;;;7.03;1.90;;;;;;;31.00;40.23;100699.59;5028292;28;20031;-88
2023/09/29 10:52:31;;;;;;;7.00;2.08;;;;;;;31.18;40.08;100703.44;5023338;28;20073;-85
2023/09/29 10:54:58;;;;;;;5.07;1.90;;;;;;;31.30;39.88;100701.56;5030534;28;20121;-84
2023/09/29 10:57:25;;;;;;;5.32;1.83;;;;;;;31.44;39.78;100694.94;5036670;28;20032;-88
2023/09/29 10:59:52;;;;;;;6.20;1.70;;;;;;;31.46;39.50;100698.38;5046494;28;20570;-86
2023/09/29 11:02:18;;;;;;;6.70;1.92;;;;;;;31.56;39.52;100697.63;5033457;28;20508;-85
2023/09/29 11:04:47;;;;;;;5.67;2.50;;;;;;;31.60;39.24;100699.06;5031223;28;20029;-85
2023/09/29 11:07:16;;;;;;;6.22;1.73;;;;;;;31.68;39.73;100696.53;5026475;28;20030;-84
2023/09/29 11:09:41;;;;;;;4.33;1.77;;;;;;;31.74;39.03;100695.16;5026133;28;20026;-84
2023/09/29 11:12:17;;;;;;;7.00;2.00;;;;;;;31.80;38.92;100694.63;5026423;28;20395;-87
2023/09/29 11:14:42;;;;;;;7.97;2.03;;;;;;;31.82;38.40;100686.34;5023791;28;20029;-82
2023/09/29 11:17:08;;;;;;;7.97;2.10;;;;;;;31.78;38.52;100685.75;5021964;28;20389;-83
2023/09/29 11:19:33;;;;;;;6.57;2.00;;;;;;;31.72;38.49;100676.25;5022186;28;20084;-88
2023/09/29 11:22:01;;;;;;;6.57;2.00;;;;;;;31.70;38.33;100675.47;5023912;28;20030;-85
2023/09/29 11:24:38;;;;;;;7.38;2.00;;;;;;;31.53;38.24;100665.22;5026468;28;20018;-83